This is the latest recevied weather packets stored in our database for station/object PA3FNT-13. If no packets are shown the sender has not sent any weather packets the latest 10 day(s).
| Time | Temp. | Humidity | Pressure | Rain* | Wind** | Luminosity | Snow |
|---|---|---|---|---|---|---|---|
| 1788444238 | 28.33° C | 43% | 1016.1 hPa | - | - | - | - |
| 1788443338 | 28.89° C | 45% | 1016.3 hPa | - | - | - | - |
| 1788442438 | 27.78° C | 47% | 1015.9 hPa | - | - | - | - |
| 1788441538 | 27.78° C | 47% | 1016 hPa | - | - | - | - |
| 1788440638 | 27.78° C | 47% | 1016 hPa | - | - | - | - |
| 1788439738 | 27.78° C | 48% | 1016 hPa | - | - | - | - |
| 1788438837 | 27.78° C | 47% | 1015.8 hPa | - | - | - | - |
| 1788437945 | 27.78° C | 47% | 1015.5 hPa | - | - | - | - |
| 1788437037 | 27.78° C | 47% | 1015.6 hPa | - | - | - | - |
| 1788436137 | 27.78° C | 47% | 1015.5 hPa | - | - | - | - |
| 1788435237 | 27.78° C | 47% | 1015.3 hPa | - | - | - | - |
| 1788434337 | 28.33° C | 46% | 1015.2 hPa | - | - | - | - |
| 1788433436 | 28.33° C | 46% | 1015.2 hPa | - | - | - | - |
| 1788432536 | 29.44° C | 45% | 1015 hPa | - | - | - | - |
| 1788431636 | 27.78° C | 47% | 1015 hPa | - | - | - | - |
| 1788430736 | 27.78° C | 47% | 1015.2 hPa | - | - | - | - |
| 1788429836 | 28.33° C | 46% | 1015 hPa | - | - | - | - |
| 1788428936 | 28.89° C | 44% | 1015.1 hPa | - | - | - | - |
| 1788428035 | 30.56° C | 43% | 1014.9 hPa | - | - | - | - |
| 1788427135 | 28.89° C | 44% | 1014.8 hPa | - | - | - | - |
| 1788426235 | 28.33° C | 45% | 1014.8 hPa | - | - | - | - |
| 1788425335 | 27.78° C | 46% | 1014.7 hPa | - | - | - | - |
| 1788424435 | 27.78° C | 46% | 1014.4 hPa | - | - | - | - |
| 1788423535 | 27.78° C | 46% | 1014.4 hPa | - | - | - | - |
| 1788422634 | 26.67° C | 49% | 1014.7 hPa | - | - | - | - |
* Rain since midnight (hover to see other rain measurements)
** Current wind speed in m/s (hover to see current wind gust speed)